sensor_id;sensor_type;location;lat;lon;timestamp;pressure;altitude;pressure_sealevel;temperature;humidity
9538;BME280;4807;48.024;11.726;2023-03-16T00:01:39;95328.56;;;1.10;84.34
9538;BME280;4807;48.024;11.726;2023-03-16T00:04:47;95326.09;;;1.19;84.41
9538;BME280;4807;48.024;11.726;2023-03-16T00:07:55;95326.78;;;1.11;84.39
9538;BME280;4807;48.024;11.726;2023-03-16T00:11:05;95325.78;;;1.02;84.55
9538;BME280;4807;48.024;11.726;2023-03-16T00:14:13;95337.31;;;0.90;85.21
9538;BME280;4807;48.024;11.726;2023-03-16T00:17:21;95325.63;;;0.94;84.20
9538;BME280;4807;48.024;11.726;2023-03-16T00:20:29;95319.69;;;0.92;84.91
9538;BME280;4807;48.024;11.726;2023-03-16T00:23:39;95321.44;;;0.82;84.68
9538;BME280;4807;48.024;11.726;2023-03-16T00:26:49;95315.84;;;0.66;85.32
9538;BME280;4807;48.024;11.726;2023-03-16T00:30:00;95324.00;;;0.63;85.64
9538;BME280;4807;48.024;11.726;2023-03-16T00:33:10;95318.63;;;0.74;84.95
9538;BME280;4807;48.024;11.726;2023-03-16T00:36:18;95321.00;;;0.77;85.40
9538;BME280;4807;48.024;11.726;2023-03-16T00:39:28;95311.59;;;0.65;85.76
9538;BME280;4807;48.024;11.726;2023-03-16T00:42:42;95310.25;;;0.50;85.95
9538;BME280;4807;48.024;11.726;2023-03-16T00:45:56;95311.63;;;0.44;85.36
9538;BME280;4807;48.024;11.726;2023-03-16T00:49:06;95308.06;;;0.45;86.57
9538;BME280;4807;48.024;11.726;2023-03-16T00:52:15;95311.81;;;0.52;86.05
9538;BME280;4807;48.024;11.726;2023-03-16T00:55:23;95312.94;;;0.59;86.24
9538;BME280;4807;48.024;11.726;2023-03-16T00:58:36;95317.50;;;0.67;85.50
9538;BME280;4807;48.024;11.726;2023-03-16T01:01:45;95305.91;;;0.60;85.72
9538;BME280;4807;48.024;11.726;2023-03-16T01:04:53;95312.56;;;0.64;85.74
9538;BME280;4807;48.024;11.726;2023-03-16T01:08:01;95314.22;;;0.65;85.36
9538;BME280;4807;48.024;11.726;2023-03-16T01:11:13;95310.44;;;0.58;85.10
9538;BME280;4807;48.024;11.726;2023-03-16T01:14:24;95311.38;;;0.47;85.62
9538;BME280;4807;48.024;11.726;2023-03-16T01:17:32;95311.75;;;0.43;85.55
9538;BME280;4807;48.024;11.726;2023-03-16T01:20:41;95308.28;;;0.42;85.63
9538;BME280;4807;48.024;11.726;2023-03-16T01:23:56;95315.38;;;0.51;84.50
9538;BME280;4807;48.024;11.726;2023-03-16T01:27:05;95315.84;;;0.35;85.17
9538;BME280;4807;48.024;11.726;2023-03-16T01:30:15;95309.22;;;0.31;85.88
9538;BME280;4807;48.024;11.726;2023-03-16T01:33:26;95311.31;;;0.37;86.01
9538;BME280;4807;48.024;11.726;2023-03-16T01:36:35;95301.44;;;0.51;84.82
9538;BME280;4807;48.024;11.726;2023-03-16T01:39:47;95300.13;;;0.56;84.99
9538;BME280;4807;48.024;11.726;2023-03-16T01:43:01;95298.16;;;0.49;85.73
9538;BME280;4807;48.024;11.726;2023-03-16T01:46:20;95299.28;;;0.56;85.38
9538;BME280;4807;48.024;11.726;2023-03-16T01:49:35;95295.56;;;0.58;84.53
9538;BME280;4807;48.024;11.726;2023-03-16T01:52:44;95288.53;;;0.59;84.85
9538;BME280;4807;48.024;11.726;2023-03-16T01:55:53;95287.69;;;0.58;85.53
9538;BME280;4807;48.024;11.726;2023-03-16T01:59:08;95281.28;;;0.72;84.53
9538;BME280;4807;48.024;11.726;2023-03-16T02:02:23;95288.00;;;0.65;84.02
9538;BME280;4807;48.024;11.726;2023-03-16T02:05:39;95283.03;;;0.62;84.02
9538;BME280;4807;48.024;11.726;2023-03-16T02:08:56;95283.81;;;0.53;84.06
9538;BME280;4807;48.024;11.726;2023-03-16T02:12:07;95279.28;;;0.55;84.22
9538;BME280;4807;48.024;11.726;2023-03-16T02:15:29;95284.34;;;0.47;84.33
9538;BME280;4807;48.024;11.726;2023-03-16T02:18:39;95282.09;;;0.42;84.38
9538;BME280;4807;48.024;11.726;2023-03-16T02:21:53;95280.06;;;0.15;84.57
9538;BME280;4807;48.024;11.726;2023-03-16T02:25:10;95285.06;;;-0.03;85.66
9538;BME280;4807;48.024;11.726;2023-03-16T02:28:27;95280.47;;;-0.10;85.83
9538;BME280;4807;48.024;11.726;2023-03-16T02:31:39;95284.66;;;-0.19;85.90
9538;BME280;4807;48.024;11.726;2023-03-16T02:34:47;95284.56;;;-0.17;86.11
9538;BME280;4807;48.024;11.726;2023-03-16T02:37:55;95282.28;;;-0.22;86.03
9538;BME280;4807;48.024;11.726;2023-03-16T02:41:13;95280.78;;;-0.24;85.95
9538;BME280;4807;48.024;11.726;2023-03-16T02:44:26;95287.13;;;-0.38;86.42
9538;BME280;4807;48.024;11.726;2023-03-16T02:47:42;95285.88;;;-0.44;86.39
9538;BME280;4807;48.024;11.726;2023-03-16T02:50:53;95295.88;;;-0.49;86.97
9538;BME280;4807;48.024;11.726;2023-03-16T02:54:02;95286.75;;;-0.54;86.24
9538;BME280;4807;48.024;11.726;2023-03-16T02:57:13;95290.94;;;-0.63;86.67
9538;BME280;4807;48.024;11.726;2023-03-16T03:00:22;95288.59;;;-0.66;87.11
9538;BME280;4807;48.024;11.726;2023-03-16T03:03:32;95287.75;;;-0.66;86.63
9538;BME280;4807;48.024;11.726;2023-03-16T03:06:40;95276.19;;;-0.64;87.61
9538;BME280;4807;48.024;11.726;2023-03-16T03:09:49;95284.03;;;-0.64;87.21
9538;BME280;4807;48.024;11.726;2023-03-16T03:12:59;95285.16;;;-0.78;86.47
9538;BME280;4807;48.024;11.726;2023-03-16T03:16:09;95275.56;;;-0.88;86.89
9538;BME280;4807;48.024;11.726;2023-03-16T03:19:19;95284.38;;;-0.89;87.37
9538;BME280;4807;48.024;11.726;2023-03-16T03:22:27;95280.09;;;-0.90;87.44
9538;BME280;4807;48.024;11.726;2023-03-16T03:25:35;95276.41;;;-0.88;87.40
9538;BME280;4807;48.024;11.726;2023-03-16T03:28:44;95283.88;;;-0.83;86.73
9538;BME280;4807;48.024;11.726;2023-03-16T03:31:53;95285.56;;;-0.93;87.11
9538;BME280;4807;48.024;11.726;2023-03-16T03:35:03;95281.56;;;-0.97;87.26
9538;BME280;4807;48.024;11.726;2023-03-16T03:38:11;95282.25;;;-0.95;86.89
9538;BME280;4807;48.024;11.726;2023-03-16T03:41:23;95278.69;;;-0.94;87.37
9538;BME280;4807;48.024;11.726;2023-03-16T03:44:33;95277.34;;;-0.89;87.05
9538;BME280;4807;48.024;11.726;2023-03-16T03:47:43;95283.16;;;-0.85;87.02
9538;BME280;4807;48.024;11.726;2023-03-16T03:50:58;95276.91;;;-0.94;87.04
9538;BME280;4807;48.024;11.726;2023-03-16T03:54:36;95278.84;;;-1.07;87.35
9538;BME280;4807;48.024;11.726;2023-03-16T03:57:48;95279.31;;;-1.13;87.53
9538;BME280;4807;48.024;11.726;2023-03-16T04:00:56;95279.69;;;-1.18;87.20
9538;BME280;4807;48.024;11.726;2023-03-16T04:04:05;95273.50;;;-1.17;87.71
9538;BME280;4807;48.024;11.726;2023-03-16T04:07:14;95264.97;;;-1.19;87.90
9538;BME280;4807;48.024;11.726;2023-03-16T04:10:26;95270.19;;;-1.19;86.85
9538;BME280;4807;48.024;11.726;2023-03-16T04:13:35;95274.69;;;-1.21;87.18
9538;BME280;4807;48.024;11.726;2023-03-16T04:16:44;95271.25;;;-1.21;86.90
9538;BME280;4807;48.024;11.726;2023-03-16T04:19:53;95272.56;;;-1.27;88.15
9538;BME280;4807;48.024;11.726;2023-03-16T04:23:03;95274.84;;;-1.22;88.01
9538;BME280;4807;48.024;11.726;2023-03-16T04:26:14;95270.88;;;-1.05;87.07
9538;BME280;4807;48.024;11.726;2023-03-16T04:29:25;95279.91;;;-1.21;86.98
9538;BME280;4807;48.024;11.726;2023-03-16T04:32:37;95273.78;;;-1.31;87.15
9538;BME280;4807;48.024;11.726;2023-03-16T04:35:46;95279.56;;;-1.16;87.53
9538;BME280;4807;48.024;11.726;2023-03-16T04:38:57;95277.06;;;-1.18;87.04
9538;BME280;4807;48.024;11.726;2023-03-16T04:42:06;95288.03;;;-1.24;86.45
9538;BME280;4807;48.024;11.726;2023-03-16T04:45:16;95279.81;;;-1.19;87.44
9538;BME280;4807;48.024;11.726;2023-03-16T04:48:26;95286.31;;;-1.02;87.36
9538;BME280;4807;48.024;11.726;2023-03-16T04:51:35;95282.28;;;-1.06;87.08
9538;BME280;4807;48.024;11.726;2023-03-16T04:54:50;95275.34;;;-0.96;87.65
9538;BME280;4807;48.024;11.726;2023-03-16T04:57:58;95271.66;;;-0.94;87.53
9538;BME280;4807;48.024;11.726;2023-03-16T05:01:12;95271.78;;;-0.95;87.40
9538;BME280;4807;48.024;11.726;2023-03-16T05:04:20;95272.53;;;-1.04;87.14
9538;BME280;4807;48.024;11.726;2023-03-16T05:07:30;95268.22;;;-0.94;87.54
9538;BME280;4807;48.024;11.726;2023-03-16T05:10:41;95259.19;;;-0.90;87.19
9538;BME280;4807;48.024;11.726;2023-03-16T05:13:51;95257.97;;;-0.86;87.98
9538;BME280;4807;48.024;11.726;2023-03-16T05:17:00;95250.22;;;-0.77;88.37
9538;BME280;4807;48.024;11.726;2023-03-16T05:20:12;95250.31;;;-0.67;87.71
9538;BME280;4807;48.024;11.726;2023-03-16T05:23:28;95256.50;;;-0.68;86.96
9538;BME280;4807;48.024;11.726;2023-03-16T05:26:42;95244.41;;;-0.80;87.14
9538;BME280;4807;48.024;11.726;2023-03-16T05:29:54;95244.28;;;-0.79;86.72
9538;BME280;4807;48.024;11.726;2023-03-16T05:33:03;95237.03;;;-0.75;86.78
9538;BME280;4807;48.024;11.726;2023-03-16T05:36:12;95242.81;;;-0.71;87.19
9538;BME280;4807;48.024;11.726;2023-03-16T05:39:24;95238.28;;;-0.58;87.04
9538;BME280;4807;48.024;11.726;2023-03-16T05:42:33;95237.25;;;-0.46;86.54
9538;BME280;4807;48.024;11.726;2023-03-16T05:45:42;95254.66;;;-0.35;86.74
9538;BME280;4807;48.024;11.726;2023-03-16T05:48:53;95252.56;;;-0.21;86.32
9538;BME280;4807;48.024;11.726;2023-03-16T05:52:02;95246.03;;;-0.06;87.29
9538;BME280;4807;48.024;11.726;2023-03-16T05:55:16;95239.38;;;0.11;86.48
9538;BME280;4807;48.024;11.726;2023-03-16T05:58:31;95244.00;;;0.28;85.84
9538;BME280;4807;48.024;11.726;2023-03-16T06:01:44;95234.97;;;0.42;85.13
9538;BME280;4807;48.024;11.726;2023-03-16T06:04:53;95237.75;;;0.50;84.93
9538;BME280;4807;48.024;11.726;2023-03-16T06:08:03;95237.66;;;0.61;83.79
9538;BME280;4807;48.024;11.726;2023-03-16T06:11:13;95235.06;;;0.71;84.23
9538;BME280;4807;48.024;11.726;2023-03-16T06:14:25;95238.97;;;0.86;83.48
9538;BME280;4807;48.024;11.726;2023-03-16T06:17:35;95238.56;;;1.00;83.37
9538;BME280;4807;48.024;11.726;2023-03-16T06:20:45;95240.13;;;1.12;83.70
9538;BME280;4807;48.024;11.726;2023-03-16T06:23:54;95250.91;;;1.29;81.94
9538;BME280;4807;48.024;11.726;2023-03-16T06:27:02;95252.53;;;1.39;81.38
9538;BME280;4807;48.024;11.726;2023-03-16T06:30:22;95248.00;;;1.51;80.86
9538;BME280;4807;48.024;11.726;2023-03-16T06:33:31;95252.81;;;1.56;80.35
9538;BME280;4807;48.024;11.726;2023-03-16T06:36:39;95244.09;;;1.55;80.26
9538;BME280;4807;48.024;11.726;2023-03-16T06:39:51;95246.47;;;1.58;80.04
9538;BME280;4807;48.024;11.726;2023-03-16T06:43:00;95250.63;;;1.70;80.11
9538;BME280;4807;48.024;11.726;2023-03-16T06:46:10;95258.19;;;1.73;79.88
9538;BME280;4807;48.024;11.726;2023-03-16T06:49:19;95264.53;;;1.80;80.16
9538;BME280;4807;48.024;11.726;2023-03-16T06:52:29;95255.81;;;1.89;80.41
9538;BME280;4807;48.024;11.726;2023-03-16T06:55:38;95259.97;;;2.02;78.53
9538;BME280;4807;48.024;11.726;2023-03-16T06:58:48;95256.38;;;2.03;79.56
9538;BME280;4807;48.024;11.726;2023-03-16T07:01:59;95256.66;;;2.00;77.90
9538;BME280;4807;48.024;11.726;2023-03-16T07:05:10;95258.84;;;2.04;78.27
9538;BME280;4807;48.024;11.726;2023-03-16T07:08:20;95251.41;;;2.00;78.06
9538;BME280;4807;48.024;11.726;2023-03-16T07:11:28;95253.88;;;2.01;77.81
9538;BME280;4807;48.024;11.726;2023-03-16T07:14:39;95254.47;;;1.85;78.73
9538;BME280;4807;48.024;11.726;2023-03-16T07:17:54;95245.19;;;1.91;78.89
9538;BME280;4807;48.024;11.726;2023-03-16T07:21:05;95240.19;;;2.07;78.02
9538;BME280;4807;48.024;11.726;2023-03-16T07:24:14;95247.09;;;1.99;77.35
9538;BME280;4807;48.024;11.726;2023-03-16T07:27:24;95249.13;;;2.24;77.97
9538;BME280;4807;48.024;11.726;2023-03-16T07:30:33;95248.88;;;2.17;76.85
9538;BME280;4807;48.024;11.726;2023-03-16T07:33:42;95244.13;;;2.30;76.83
9538;BME280;4807;48.024;11.726;2023-03-16T07:36:57;95247.91;;;2.55;77.15
9538;BME280;4807;48.024;11.726;2023-03-16T07:40:10;95253.38;;;2.72;75.48
9538;BME280;4807;48.024;11.726;2023-03-16T07:43:20;95255.13;;;3.08;75.05
9538;BME280;4807;48.024;11.726;2023-03-16T07:46:29;95249.63;;;3.19;73.85
9538;BME280;4807;48.024;11.726;2023-03-16T07:49:40;95247.47;;;3.32;73.50
9538;BME280;4807;48.024;11.726;2023-03-16T07:52:48;95254.84;;;3.64;72.42
9538;BME280;4807;48.024;11.726;2023-03-16T07:55:57;95252.13;;;3.74;71.74
9538;BME280;4807;48.024;11.726;2023-03-16T07:59:06;95259.31;;;3.90;71.76
9538;BME280;4807;48.024;11.726;2023-03-16T08:02:18;95260.88;;;4.18;71.15
9538;BME280;4807;48.024;11.726;2023-03-16T08:05:30;95263.75;;;4.33;70.12
9538;BME280;4807;48.024;11.726;2023-03-16T08:08:42;95268.44;;;3.95;70.52
9538;BME280;4807;48.024;11.726;2023-03-16T08:11:59;95271.31;;;4.28;70.73
9538;BME280;4807;48.024;11.726;2023-03-16T08:15:09;95273.28;;;4.26;70.56
9538;BME280;4807;48.024;11.726;2023-03-16T08:18:18;95286.34;;;4.35;70.16
9538;BME280;4807;48.024;11.726;2023-03-16T08:21:28;95283.41;;;4.12;70.33
9538;BME280;4807;48.024;11.726;2023-03-16T08:24:37;95287.25;;;4.00;70.17
9538;BME280;4807;48.024;11.726;2023-03-16T08:27:48;95277.09;;;4.31;70.34
9538;BME280;4807;48.024;11.726;2023-03-16T08:30:57;95281.25;;;4.34;69.98
9538;BME280;4807;48.024;11.726;2023-03-16T08:34:22;95288.84;;;4.37;69.98
9538;BME280;4807;48.024;11.726;2023-03-16T08:37:31;95291.84;;;4.42;69.66
9538;BME280;4807;48.024;11.726;2023-03-16T08:40:40;95290.75;;;4.52;69.42
9538;BME280;4807;48.024;11.726;2023-03-16T08:43:54;95286.25;;;4.19;70.03
9538;BME280;4807;48.024;11.726;2023-03-16T08:47:06;95287.44;;;4.25;70.12
9538;BME280;4807;48.024;11.726;2023-03-16T08:50:21;95281.03;;;4.53;70.55
9538;BME280;4807;48.024;11.726;2023-03-16T08:53:31;95281.69;;;4.55;70.54
9538;BME280;4807;48.024;11.726;2023-03-16T08:56:39;95276.25;;;4.56;69.48
9538;BME280;4807;48.024;11.726;2023-03-16T08:59:47;95275.22;;;4.23;69.32
9538;BME280;4807;48.024;11.726;2023-03-16T09:02:56;95269.56;;;4.36;69.83
9538;BME280;4807;48.024;11.726;2023-03-16T09:06:08;95272.19;;;4.62;69.11
9538;BME280;4807;48.024;11.726;2023-03-16T09:09:24;95267.59;;;5.06;67.88
9538;BME280;4807;48.024;11.726;2023-03-16T09:12:35;95272.50;;;5.35;67.13
9538;BME280;4807;48.024;11.726;2023-03-16T09:15:44;95275.41;;;5.16;67.33
9538;BME280;4807;48.024;11.726;2023-03-16T09:18:53;95272.47;;;5.27;67.27
9538;BME280;4807;48.024;11.726;2023-03-16T09:22:01;95268.56;;;5.55;67.10
9538;BME280;4807;48.024;11.726;2023-03-16T09:25:11;95274.28;;;5.26;67.30
9538;BME280;4807;48.024;11.726;2023-03-16T09:28:20;95273.88;;;5.13;67.94
9538;BME280;4807;48.024;11.726;2023-03-16T09:31:28;95271.72;;;4.67;68.12
9538;BME280;4807;48.024;11.726;2023-03-16T09:34:37;95278.16;;;4.72;69.66
9538;BME280;4807;48.024;11.726;2023-03-16T09:37:45;95267.69;;;4.88;69.50
9538;BME280;4807;48.024;11.726;2023-03-16T09:41:36;95270.28;;;4.80;68.41
9538;BME280;4807;48.024;11.726;2023-03-16T09:45:01;95273.03;;;5.63;67.69
9538;BME280;4807;48.024;11.726;2023-03-16T09:48:14;95277.44;;;4.96;67.95
9538;BME280;4807;48.024;11.726;2023-03-16T09:51:35;95280.41;;;4.59;69.84
9538;BME280;4807;48.024;11.726;2023-03-16T09:54:52;95279.22;;;4.87;68.57
9538;BME280;4807;48.024;11.726;2023-03-16T09:58:15;95286.06;;;5.48;66.81
9538;BME280;4807;48.024;11.726;2023-03-16T10:01:39;95279.88;;;5.98;65.76
9538;BME280;4807;48.024;11.726;2023-03-16T10:05:04;95281.84;;;5.96;65.40
9538;BME280;4807;48.024;11.726;2023-03-16T10:08:20;95283.16;;;5.84;64.90
9538;BME280;4807;48.024;11.726;2023-03-16T10:11:32;95273.56;;;5.74;65.07
9538;BME280;4807;48.024;11.726;2023-03-16T10:14:51;95269.28;;;6.46;63.87
9538;BME280;4807;48.024;11.726;2023-03-16T10:18:08;95268.94;;;6.41;62.59
9538;BME280;4807;48.024;11.726;2023-03-16T10:21:22;95271.53;;;6.66;61.59
9538;BME280;4807;48.024;11.726;2023-03-16T10:24:43;95269.69;;;6.82;62.29
9538;BME280;4807;48.024;11.726;2023-03-16T10:27:55;95262.25;;;7.56;60.98
9538;BME280;4807;48.024;11.726;2023-03-16T10:31:05;95259.44;;;7.80;60.40
9538;BME280;4807;48.024;11.726;2023-03-16T10:34:14;95249.63;;;8.34;57.71
9538;BME280;4807;48.024;11.726;2023-03-16T10:37:23;95257.97;;;8.00;58.58
9538;BME280;4807;48.024;11.726;2023-03-16T10:40:37;95250.47;;;8.27;58.63
9538;BME280;4807;48.024;11.726;2023-03-16T10:43:49;95252.22;;;8.57;57.56
9538;BME280;4807;48.024;11.726;2023-03-16T10:47:02;95240.13;;;7.94;58.22
9538;BME280;4807;48.024;11.726;2023-03-16T10:50:13;95244.34;;;7.58;59.30
9538;BME280;4807;48.024;11.726;2023-03-16T10:53:27;95239.16;;;7.42;61.12
9538;BME280;4807;48.024;11.726;2023-03-16T10:56:36;95234.09;;;7.55;60.34
9538;BME280;4807;48.024;11.726;2023-03-16T10:59:48;95230.06;;;7.67;59.62
9538;BME280;4807;48.024;11.726;2023-03-16T11:02:59;95221.66;;;7.33;61.38
9538;BME280;4807;48.024;11.726;2023-03-16T11:06:19;95230.59;;;7.85;61.44
9538;BME280;4807;48.024;11.726;2023-03-16T11:09:33;95216.75;;;8.13;59.30
9538;BME280;4807;48.024;11.726;2023-03-16T11:12:46;95217.63;;;8.51;58.90
9538;BME280;4807;48.024;11.726;2023-03-16T11:15:59;95203.53;;;8.27;58.89
9538;BME280;4807;48.024;11.726;2023-03-16T11:19:17;95198.03;;;8.14;59.83
9538;BME280;4807;48.024;11.726;2023-03-16T11:22:28;95193.94;;;7.66;59.44
9538;BME280;4807;48.024;11.726;2023-03-16T11:25:44;95185.50;;;7.40;61.82
9538;BME280;4807;48.024;11.726;2023-03-16T11:29:00;95188.47;;;7.14;61.98
9538;BME280;4807;48.024;11.726;2023-03-16T11:32:19;95189.59;;;7.50;63.79
9538;BME280;4807;48.024;11.726;2023-03-16T11:35:43;95184.28;;;7.27;62.95
9538;BME280;4807;48.024;11.726;2023-03-16T11:39:19;95184.66;;;7.16;62.52
9538;BME280;4807;48.024;11.726;2023-03-16T11:42:37;95167.56;;;6.96;61.71
9538;BME280;4807;48.024;11.726;2023-03-16T11:45:55;95169.97;;;7.06;62.27
9538;BME280;4807;48.024;11.726;2023-03-16T11:49:35;95161.41;;;7.04;60.80
9538;BME280;4807;48.024;11.726;2023-03-16T11:52:59;95158.84;;;7.18;62.53
9538;BME280;4807;48.024;11.726;2023-03-16T11:56:24;95155.59;;;7.08;62.55
9538;BME280;4807;48.024;11.726;2023-03-16T12:00:12;95150.00;;;7.03;62.20
9538;BME280;4807;48.024;11.726;2023-03-16T12:04:03;95140.97;;;7.20;62.52
9538;BME280;4807;48.024;11.726;2023-03-16T12:07:33;95132.59;;;7.32;60.73
9538;BME280;4807;48.024;11.726;2023-03-16T12:10:51;95130.59;;;7.34;60.63
9538;BME280;4807;48.024;11.726;2023-03-16T12:14:14;95114.31;;;7.45;61.56
9538;BME280;4807;48.024;11.726;2023-03-16T12:17:28;95114.94;;;7.70;59.85
9538;BME280;4807;48.024;11.726;2023-03-16T12:20:49;95124.41;;;7.64;57.99
9538;BME280;4807;48.024;11.726;2023-03-16T12:24:02;95117.34;;;7.56;59.25
9538;BME280;4807;48.024;11.726;2023-03-16T12:27:19;95118.81;;;7.59;58.84
9538;BME280;4807;48.024;11.726;2023-03-16T12:30:41;95102.25;;;7.57;58.33
9538;BME280;4807;48.024;11.726;2023-03-16T12:34:09;95104.19;;;7.63;58.34
9538;BME280;4807;48.024;11.726;2023-03-16T12:37:32;95097.84;;;7.49;57.71
9538;BME280;4807;48.024;11.726;2023-03-16T12:40:47;95100.78;;;7.54;58.79
9538;BME280;4807;48.024;11.726;2023-03-16T12:44:12;95098.63;;;7.58;55.12
9538;BME280;4807;48.024;11.726;2023-03-16T12:47:28;95095.25;;;7.64;56.25
9538;BME280;4807;48.024;11.726;2023-03-16T12:50:49;95093.81;;;7.76;55.71
9538;BME280;4807;48.024;11.726;2023-03-16T12:53:57;95081.75;;;7.88;56.95
9538;BME280;4807;48.024;11.726;2023-03-16T12:57:08;95091.66;;;7.94;53.03
9538;BME280;4807;48.024;11.726;2023-03-16T13:00:32;95081.50;;;7.98;54.89
9538;BME280;4807;48.024;11.726;2023-03-16T13:03:43;95086.63;;;7.99;55.19
9538;BME280;4807;48.024;11.726;2023-03-16T13:07:03;95084.34;;;7.96;54.78
9538;BME280;4807;48.024;11.726;2023-03-16T13:10:15;95080.16;;;8.02;54.77
9538;BME280;4807;48.024;11.726;2023-03-16T13:13:26;95081.06;;;8.09;53.46
9538;BME280;4807;48.024;11.726;2023-03-16T13:16:37;95074.66;;;8.03;52.09
9538;BME280;4807;48.024;11.726;2023-03-16T13:20:03;95068.06;;;8.14;52.94
9538;BME280;4807;48.024;11.726;2023-03-16T13:23:21;95070.81;;;8.21;52.13
9538;BME280;4807;48.024;11.726;2023-03-16T13:26:39;95068.44;;;8.26;52.55
9538;BME280;4807;48.024;11.726;2023-03-16T13:29:55;95070.09;;;8.27;50.95
9538;BME280;4807;48.024;11.726;2023-03-16T13:33:16;95065.50;;;8.21;52.33
9538;BME280;4807;48.024;11.726;2023-03-16T13:36:28;95063.97;;;8.26;52.17
9538;BME280;4807;48.024;11.726;2023-03-16T13:39:37;95060.94;;;8.44;51.43
9538;BME280;4807;48.024;11.726;2023-03-16T13:42:47;95066.16;;;8.37;50.19
9538;BME280;4807;48.024;11.726;2023-03-16T13:45:58;95069.53;;;8.46;51.60
9538;BME280;4807;48.024;11.726;2023-03-16T13:49:10;95064.41;;;8.45;52.31
9538;BME280;4807;48.024;11.726;2023-03-16T13:52:26;95061.88;;;8.51;51.42
9538;BME280;4807;48.024;11.726;2023-03-16T13:55:37;95055.28;;;8.47;51.34
9538;BME280;4807;48.024;11.726;2023-03-16T13:58:49;95057.47;;;8.58;51.47
9538;BME280;4807;48.024;11.726;2023-03-16T14:01:59;95053.53;;;8.54;49.94
9538;BME280;4807;48.024;11.726;2023-03-16T14:05:17;95055.63;;;8.59;50.80
9538;BME280;4807;48.024;11.726;2023-03-16T14:08:26;95050.66;;;8.70;50.93
9538;BME280;4807;48.024;11.726;2023-03-16T14:11:35;95047.25;;;8.76;50.44
9538;BME280;4807;48.024;11.726;2023-03-16T14:14:47;95042.34;;;8.73;50.01
9538;BME280;4807;48.024;11.726;2023-03-16T14:18:12;95026.94;;;8.69;49.77
9538;BME280;4807;48.024;11.726;2023-03-16T14:21:25;95037.78;;;8.67;49.00
9538;BME280;4807;48.024;11.726;2023-03-16T14:24:37;95042.81;;;8.62;49.66
9538;BME280;4807;48.024;11.726;2023-03-16T14:27:46;95041.97;;;8.62;48.97
9538;BME280;4807;48.024;11.726;2023-03-16T14:31:04;95048.28;;;8.61;49.14
9538;BME280;4807;48.024;11.726;2023-03-16T14:34:26;95044.44;;;8.63;49.47
9538;BME280;4807;48.024;11.726;2023-03-16T14:37:37;95046.34;;;8.69;48.03
9538;BME280;4807;48.024;11.726;2023-03-16T14:40:53;95038.03;;;8.72;50.68
9538;BME280;4807;48.024;11.726;2023-03-16T14:44:02;95043.03;;;8.82;49.53
9538;BME280;4807;48.024;11.726;2023-03-16T14:47:24;95046.75;;;8.88;48.85
9538;BME280;4807;48.024;11.726;2023-03-16T14:50:34;95040.00;;;8.85;47.44
9538;BME280;4807;48.024;11.726;2023-03-16T14:53:44;95038.28;;;8.77;47.62
9538;BME280;4807;48.024;11.726;2023-03-16T14:56:57;95028.66;;;8.76;47.97
9538;BME280;4807;48.024;11.726;2023-03-16T15:00:08;95033.25;;;8.83;48.74
9538;BME280;4807;48.024;11.726;2023-03-16T15:03:21;95030.72;;;8.74;47.89
9538;BME280;4807;48.024;11.726;2023-03-16T15:06:31;95027.78;;;8.69;49.64
9538;BME280;4807;48.024;11.726;2023-03-16T15:09:41;95028.31;;;8.79;49.26
9538;BME280;4807;48.024;11.726;2023-03-16T15:12:50;95035.63;;;8.77;49.23
9538;BME280;4807;48.024;11.726;2023-03-16T15:16:01;95028.00;;;8.89;48.87
9538;BME280;4807;48.024;11.726;2023-03-16T15:19:10;95020.78;;;8.83;48.59
9538;BME280;4807;48.024;11.726;2023-03-16T15:22:25;95019.31;;;8.80;48.80
9538;BME280;4807;48.024;11.726;2023-03-16T15:25:38;95013.56;;;8.77;48.76
9538;BME280;4807;48.024;11.726;2023-03-16T15:28:47;95013.84;;;8.82;48.78
9538;BME280;4807;48.024;11.726;2023-03-16T15:31:55;95019.31;;;8.80;48.51
9538;BME280;4807;48.024;11.726;2023-03-16T15:35:04;95013.50;;;8.70;49.30
9538;BME280;4807;48.024;11.726;2023-03-16T15:38:15;95021.56;;;8.62;49.40
9538;BME280;4807;48.024;11.726;2023-03-16T15:41:26;95025.09;;;8.48;50.27
9538;BME280;4807;48.024;11.726;2023-03-16T15:44:55;95021.44;;;8.49;49.29
9538;BME280;4807;48.024;11.726;2023-03-16T15:48:04;95015.38;;;8.55;50.32
9538;BME280;4807;48.024;11.726;2023-03-16T15:51:20;95008.91;;;8.43;50.88
9538;BME280;4807;48.024;11.726;2023-03-16T15:54:31;95008.91;;;8.43;50.38
9538;BME280;4807;48.024;11.726;2023-03-16T15:57:42;95003.69;;;8.50;50.31
9538;BME280;4807;48.024;11.726;2023-03-16T16:00:52;94995.75;;;8.35;51.00
9538;BME280;4807;48.024;11.726;2023-03-16T16:04:11;94994.28;;;8.32;51.12
9538;BME280;4807;48.024;11.726;2023-03-16T16:07:21;94984.41;;;8.26;51.36
9538;BME280;4807;48.024;11.726;2023-03-16T16:10:29;94980.53;;;8.29;51.88
9538;BME280;4807;48.024;11.726;2023-03-16T16:13:39;94982.66;;;8.19;51.27
9538;BME280;4807;48.024;11.726;2023-03-16T16:16:51;94980.72;;;8.13;51.96
9538;BME280;4807;48.024;11.726;2023-03-16T16:20:00;94974.72;;;8.04;52.25
9538;BME280;4807;48.024;11.726;2023-03-16T16:23:09;94971.63;;;8.00;52.72
9538;BME280;4807;48.024;11.726;2023-03-16T16:26:26;94961.75;;;7.94;52.87
9538;BME280;4807;48.024;11.726;2023-03-16T16:29:55;94975.72;;;7.88;53.07
9538;BME280;4807;48.024;11.726;2023-03-16T16:33:23;94973.25;;;7.87;52.83
9538;BME280;4807;48.024;11.726;2023-03-16T16:36:33;94971.63;;;7.71;53.74
9538;BME280;4807;48.024;11.726;2023-03-16T16:39:41;94978.22;;;7.60;53.40
9538;BME280;4807;48.024;11.726;2023-03-16T16:42:52;94987.59;;;7.63;53.58
9538;BME280;4807;48.024;11.726;2023-03-16T16:46:09;94990.25;;;7.48;55.50
9538;BME280;4807;48.024;11.726;2023-03-16T16:49:24;94998.66;;;7.37;55.03
9538;BME280;4807;48.024;11.726;2023-03-16T16:52:34;94993.78;;;7.26;55.34
9538;BME280;4807;48.024;11.726;2023-03-16T16:55:43;94993.50;;;7.21;55.59
9538;BME280;4807;48.024;11.726;2023-03-16T16:58:52;94997.03;;;7.13;56.14
9538;BME280;4807;48.024;11.726;2023-03-16T17:02:20;95005.47;;;6.94;56.65
9538;BME280;4807;48.024;11.726;2023-03-16T17:05:30;95000.94;;;6.80;57.17
9538;BME280;4807;48.024;11.726;2023-03-16T17:08:38;94999.41;;;6.63;57.81
9538;BME280;4807;48.024;11.726;2023-03-16T17:11:48;95002.44;;;6.51;58.00
9538;BME280;4807;48.024;11.726;2023-03-16T17:14:56;94997.06;;;6.37;58.71
9538;BME280;4807;48.024;11.726;2023-03-16T17:18:12;95010.72;;;6.18;59.53
9538;BME280;4807;48.024;11.726;2023-03-16T17:21:23;95011.28;;;6.05;59.88
9538;BME280;4807;48.024;11.726;2023-03-16T17:24:32;95006.94;;;6.12;60.02
9538;BME280;4807;48.024;11.726;2023-03-16T17:27:43;95007.34;;;5.93;60.39